Latest Weather Observations for Cooma Airport

IDN60901

Issued at 8:11 am EDT Wednesday 25 January 2017 (issued every 10 minutes, with the page automatically refreshed every 10 minutes)

About weather observations | Map of Canberra area stations | Latest observations for Canberra area | Other Formats
Station Details ID: 070217 Name: COOMA AIRPORT AWS Lat: -36.29 Lon: 148.97 Height: 930.0 m
Data from the previous 72 hours. | See also: Recent months at Cooma Airport
Date/Time
EDT
Temp
°C
App
Temp
°C
Dew
Point
°C
Rel
Hum
%
Delta-T
°C
Wind Press
QNH
hPa
Press
MSL
hPa
Rain since
9am
mm
Dir  Spd
km/h
Gust
km/h
Spd
kts
Gust
kts
25/08:00am 14.0 9.6 11.7 86 1.3 NNE 26 30 14 16 1021.1 1016.9 0.0
25/07:30am 13.5 10.0 10.9 84 1.4 NE 20 26 11 14 1021.1 1016.9 0.0
25/07:00am 13.8 10.6 9.8 77 2.2 NNE 17 20 9 11 1020.9 1016.7 0.0
25/06:30am 13.3 11.1 9.4 77 2.1 NE 11 13 6 7 1020.8 1016.6 0.0
25/06:00am 13.1 11.3 9.4 78 2.0 NNE 9 11 5 6 1020.9 1016.7 0.0
25/05:30am 12.8 11.3 9.1 78 2.0 N 7 11 4 6 1020.8 1016.6 0.0
25/05:00am 12.9 12.7 9.0 77 2.1 CALM 0 0 0 0 1021.0 1016.8 0.0
25/04:30am 12.8 12.5 8.7 76 2.2 CALM 0 6 0 3 1021.0 1016.8 0.0
25/04:00am 12.9 11.8 8.4 74 2.3 S 4 9 2 5 1021.1 1016.9 0.0
25/03:30am 13.2 11.1 8.3 72 2.6 S 9 11 5 6 1021.1 1016.9 0.0
25/03:26am 13.3 11.2 8.4 72 2.6 S 9 11 5 6 1021.1 1016.9 0.0
25/03:00am 13.3 10.8 8.4 72 2.6 S 11 13 6 7 1021.3 1017.1 0.0
25/02:30am 13.5 11.1 8.6 72 2.6 SSW 11 13 6 7 1021.6 1017.4 0.0
25/02:00am 13.5 11.0 8.4 71 2.7 S 11 13 6 7 1021.6 1017.4 0.0
25/01:30am 13.6 10.8 8.4 71 2.7 S 13 17 7 9 1021.6 1017.4 0.0
25/01:00am 13.7 10.8 8.3 70 2.8 S 13 17 7 9 1021.8 1017.6 0.0
25/12:30am 13.8 11.0 8.6 71 2.7 SSE 13 15 7 8 1021.8 1017.6 0.0
25/12:00am 14.0 10.9 8.8 71 2.8 S 15 19 8 10 1021.7 1017.5 0.0
 
Date/Time
EDT
Temp
°C
App
Temp
°C
Dew
Point
°C
Rel
Hum
%
Delta-T
°C
Wind Press
QNH
hPa
Press
MSL
hPa
Rain since
9am
mm
Dir  Spd
km/h
Gust
km/h
Spd
kts
Gust
kts
24/11:30pm 14.0 11.2 8.6 70 2.9 SSE 13 19 7 10 1021.6 1017.4 0.0
24/11:00pm 14.0 10.8 8.6 70 2.8 SSE 15 19 8 10 1021.4 1017.2 0.0
24/10:30pm 14.0 11.3 8.8 71 2.8 S 13 19 7 10 1021.0 1016.8 0.0
24/10:00pm 13.5 11.1 8.6 72 2.6 SSW 11 15 6 8 1020.7 1016.5 0.0
24/09:30pm 14.0 10.9 8.8 71 2.8 S 15 20 8 11 1020.2 1015.9 0.0
24/09:00pm 14.7 11.3 9.1 69 3.0 SSW 17 24 9 13 1019.7 1015.5 0.0
24/08:30pm 15.5 11.2 9.4 67 3.3 S 22 30 12 16 1019.2 1014.9 0.0
24/08:00pm 16.3 11.4 9.9 66 3.5 S 26 35 14 19 1018.6 1014.4 0.0
24/07:30pm 17.4 11.9 10.5 64 3.9 S 30 35 16 19 1017.8 1013.5 0.0
24/07:00pm 19.0 13.1 11.1 60 4.5 S 33 44 18 24 1016.4 1012.2 0.0
24/06:30pm 21.4 15.5 12.3 56 5.4 SSE 35 44 19 24 1015.5 1011.2 0.0
24/06:00pm 23.3 18.3 13.5 54 5.9 S 32 41 17 22 1014.5 1010.1 0.0
24/05:30pm 23.8 18.7 13.1 51 6.4 S 32 41 17 22 1013.6 1009.3 0.0
24/05:00pm 27.6 23.0 11.2 36 9.7 WSW 26 35 14 19 1013.4 1009.0 0.0
24/04:30pm 28.6 25.3 11.6 34 10.2 WSW 20 32 11 17 1013.3 1008.9 0.0
24/04:00pm 29.9 25.7 12.3 33 10.7 WSW 26 37 14 20 1013.0 1008.7 0.0
24/03:30pm 29.8 25.8 11.8 33 10.9 W 24 41 13 22 1013.0 1008.7 0.0
24/03:00pm 27.3 22.4 11.3 37 9.5 WNW 28 39 15 21 1013.0 1008.7 0.0
24/02:30pm 27.1 23.9 11.2 37 9.4 W 19 33 10 18 1012.9 1008.6 0.0
24/02:00pm 26.8 23.9 12.8 42 8.5 W 20 32 11 17 1012.9 1008.6 0.0
24/01:30pm 26.9 22.4 12.5 40 8.7 W 28 43 15 23 1012.7 1008.4 0.0
24/01:00pm 27.2 24.0 14.2 44 8.1 WSW 24 35 13 19 1012.8 1008.5 0.0
24/12:30pm 26.3 24.6 14.7 48 7.2 W 17 26 9 14 1012.9 1008.6 0.0
24/12:00pm 26.3 23.9 13.8 46 7.7 WSW 19 30 10 16 1012.9 1008.6 0.0
24/11:30am 27.9 23.4 14.9 45 8.2 W 32 61 17 33 1012.2 1007.8 0.0
24/11:11am 27.5 23.7 14.8 45 8.0 W 28 50 15 27 1011.8 1007.5 0.0
24/11:00am 26.9 24.0 15.0 48 7.5 WNW 24 48 13 26 1011.7 1007.4 0.0
24/10:30am 26.9 22.3 15.0 48 7.5 W 33 57 18 31 1011.4 1007.0 0.0
24/10:17am 26.7 22.9 14.8 48 7.4 W 28 48 15 26 1011.2 1006.8 0.0
24/10:00am 27.0 24.1 15.1 48 7.5 WNW 24 37 13 20 1011.1 1006.7 0.0
24/09:30am 25.5 21.2 14.3 50 6.9 W 30 48 16 26 1011.5 1007.1 0.0
24/09:01am 26.4 22.8 14.2 47 7.6 W 26 46 14 25 1011.5 1007.1 0.0
24/09:00am 26.7 23.3 14.8 48 7.5 W 26 37 14 20 1011.5 1007.1 0.0
24/08:57am 26.0 22.1 14.5 49 7.1 W 28 52 15 28 1011.4 1007.0 0.0
24/08:49am 25.9 21.8 15.0 51 6.8 WSW 30 56 16 30 1011.4 1007.0 0.0
24/08:47am 25.4 21.5 14.5 51 6.8 WSW 28 56 15 30 1011.3 1006.9 0.0
24/08:30am 24.9 22.1 14.4 52 6.5 WSW 22 35 12 19 1010.4 1006.0 0.0
24/08:00am 24.4 21.1 13.9 52 6.4 WSW 24 48 13 26 1010.2 1005.8 0.0
24/07:30am 23.7 21.7 13.8 53 6.0 NW 17 30 9 16 1009.1 1004.7 0.0
24/07:00am 23.6 20.7 15.1 59 5.3 WNW 24 33 13 18 1009.5 1005.1 0.0
24/06:30am 23.5 22.2 15.8 62 4.8 WNW 17 24 9 13 1009.4 1005.0 0.0
24/06:00am 23.1 22.9 16.6 67 4.1 WNW 13 22 7 12 1009.5 1005.1 0.0
24/05:30am 23.2 22.4 17.9 72 3.4 WNW 19 28 10 15 1009.3 1004.9 0.0
24/05:00am 23.5 23.3 18.4 73 3.3 WNW 17 24 9 13 1009.2 1004.8 0.0
24/04:30am 23.3 23.9 17.7 71 3.6 WNW 11 20 6 11 1009.2 1004.8 0.0
24/04:00am 23.4 23.5 18.3 73 3.3 WNW 15 24 8 13 1009.2 1004.8 0.0
24/03:30am 24.5 23.6 18.2 68 4.1 NW 20 35 11 19 1009.1 1004.7 0.0
24/03:00am 24.4 23.9 17.9 67 4.2 NNW 17 26 9 14 1008.9 1004.5 0.0
24/02:30am 24.6 22.3 17.6 65 4.5 NNW 26 39 14 21 1008.9 1004.5 0.0
24/02:02am 25.0 21.4 17.2 62 5.0 NNW 32 50 17 27 1008.9 1004.5 0.0
24/02:00am 25.2 21.5 17.4 62 5.1 NNW 33 50 18 27 1009.0 1004.6 0.0
24/01:51am 25.6 22.8 17.3 60 5.4 NNW 28 46 15 25 1009.2 1004.8 0.0
24/01:30am 25.2 23.8 17.1 60 5.2 NNW 20 30 11 16 1009.3 1004.9 0.0
24/01:00am 24.9 21.6 17.1 62 5.0 NNW 30 43 16 23 1009.4 1005.0 0.0
24/12:30am 24.7 21.9 17.2 63 4.8 NNW 28 37 15 20 1009.5 1005.1 0.0
24/12:00am 24.4 22.7 17.1 63 4.7 N 22 32 12 17 1009.9 1005.5 0.0
 
Date/Time
EDT
Temp
°C
App
Temp
°C
Dew
Point
°C
Rel
Hum
%
Delta-T
°C
Wind Press
QNH
hPa
Press
MSL
hPa
Rain since
9am
mm
Dir  Spd
km/h
Gust
km/h
Spd
kts
Gust
kts
23/11:30pm 24.9 21.6 17.1 62 5.0 N 30 39 16 21 1010.0 1005.6 0.0
23/11:00pm 25.1 21.8 17.1 61 5.2 NNW 30 48 16 26 1010.4 1006.0 0.0
23/10:59pm 25.1 21.8 17.1 61 5.2 NNW 30 48 16 26 1010.4 1006.0 0.0
23/10:30pm 25.2 22.7 17.1 60 5.2 N 26 35 14 19 1011.0 1006.6 0.0
23/10:00pm 25.7 22.7 16.8 58 5.7 N 28 37 15 20 1011.1 1006.7 0.0
23/09:30pm 26.6 23.9 16.5 54 6.5 N 26 37 14 20 1011.1 1006.7 0.0
23/09:00pm 27.6 24.5 16.6 51 7.1 NNW 28 37 15 20 1011.1 1006.7 0.0
23/08:30pm 28.4 26.6 16.0 47 7.9 NNW 20 30 11 16 1010.7 1006.4 0.0
23/08:00pm 28.7 26.2 15.2 43 8.6 N 22 30 12 16 1010.5 1006.1 0.0
23/07:30pm 29.2 27.1 14.6 41 9.2 NNW 19 30 10 16 1010.3 1005.9 0.0
23/07:00pm 29.5 26.9 13.7 38 9.8 NNW 20 28 11 15 1010.2 1005.8 0.0
23/06:30pm 30.4 27.0 13.7 36 10.4 NNW 24 35 13 19 1010.0 1005.6 0.0
23/06:00pm 30.3 26.5 13.6 36 10.4 NNW 26 39 14 21 1009.9 1005.5 0.0
23/05:30pm 30.3 27.8 14.0 37 10.2 NW 20 35 11 19 1010.2 1005.8 0.0
23/05:00pm 30.2 27.4 14.3 38 10.0 NW 22 28 12 15 1010.6 1006.3 0.0
23/04:30pm 29.9 26.2 14.0 37 9.9 NNW 26 39 14 21 1011.1 1006.7 0.0
23/04:00pm 30.3 27.2 14.4 38 10.0 NW 24 41 13 22 1011.5 1007.1 0.0
23/03:30pm 29.5 26.4 13.3 37 10.0 NW 22 33 12 18 1011.8 1007.5 0.0
23/03:00pm 28.8 25.5 12.7 37 9.8 NW 22 33 12 18 1012.3 1007.9 0.0
23/02:30pm 28.4 24.1 13.1 39 9.4 NW 28 41 15 22 1012.6 1008.3 0.0
23/02:00pm 27.9 24.7 14.2 43 8.5 NW 24 39 13 21 1012.8 1008.5 0.0
23/01:30pm 27.3 24.3 14.7 46 7.9 NW 24 33 13 18 1013.5 1009.1 0.0
23/01:00pm 28.6 25.6 15.8 45 8.2 NW 26 37 14 20 1013.8 1009.5 0.0
23/12:30pm 27.3 24.6 15.7 49 7.4 NW 24 44 13 24 1014.1 1009.8 0.0
23/12:09pm 27.8 24.3 15.5 47 7.8 NW 28 46 15 25 1014.2 1009.9 0.0
23/12:00pm 27.8 23.9 15.5 47 7.8 NW 30 41 16 22 1014.2 1009.9 0.0
23/11:30am 27.1 21.8 14.1 44 8.1 NW 35 44 19 24 1014.4 1010.0 0.0
23/11:00am 26.4 21.3 13.2 44 8.1 NNW 32 50 17 27 1014.5 1010.1 0.0
23/10:33am 26.2 21.6 12.3 42 8.4 NW 28 46 15 25 1014.8 1010.5 0.0
23/10:30am 26.2 21.2 12.3 42 8.4 NNW 30 41 16 22 1014.8 1010.5 0.0
23/10:00am 24.8 22.4 13.7 50 6.8 NNE 19 30 10 16 1015.0 1010.7 0.0
23/09:30am 23.1 20.1 13.8 55 5.7 NE 22 28 12 15 1015.0 1010.7 0.0
23/09:00am 20.3 18.0 14.0 67 3.8 NNE 19 24 10 13 1015.2 1010.9 0.0
23/08:30am 17.7 14.6 13.4 76 2.5 NE 22 26 12 14 1015.2 1010.9 0.0
23/08:00am 15.7 13.2 13.4 86 1.3 NE 19 24 10 13 1015.5 1011.2 0.0
23/07:30am 14.2 11.8 13.7 97 0.3 NE 19 22 10 12 1015.3 1011.0 0.0
23/07:00am 13.7 11.6 13.5 99 0.1 NE 17 20 9 11 1015.3 1011.0 0.0
23/06:30am 12.5 10.4 12.3 99 0.1 NE 15 17 8 9 1015.3 1011.0 0.0
23/06:00am 12.1 9.5 11.9 99 0.1 NNE 17 19 9 10 1015.1 1010.8 0.0
23/05:30am 12.2 10.0 12.0 99 0.1 NE 15 17 8 9 1015.1 1010.8 0.0
23/05:00am 11.8 9.5 11.6 99 0.1 NNE 15 17 8 9 1015.0 1010.7 0.0
23/04:30am 11.4 8.9 11.2 99 0.1 NNE 15 17 8 9 1014.9 1010.6 0.0
23/04:00am 11.2 9.4 11.0 99 0.1 NNE 11 13 6 7 1015.3 1011.0 0.0
23/03:30am 10.1 7.7 10.0 99 0.1 NNE 13 13 7 7 1015.3 1011.0 0.0
23/03:00am 10.5 8.9 10.3 99 0.1 NNE 9 11 5 6 1015.7 1011.4 0.0
23/02:30am 10.9 9.4 10.6 98 0.2 NNE 9 11 5 6 1015.9 1011.6 0.0
23/02:00am 11.2 9.8 10.9 98 0.2 NNE 9 11 5 6 1016.2 1011.9 0.0
23/01:30am 12.1 10.9 11.6 97 0.3 NNE 9 9 5 5 1016.7 1012.4 0.0
23/01:00am 12.8 12.0 11.7 93 0.6 N 7 11 4 6 1017.0 1012.7 0.0
23/12:30am 12.6 11.4 11.5 93 0.6 NNE 9 11 5 6 1017.1 1012.8 0.0
23/12:00am 12.5 11.2 11.1 91 0.8 N 9 11 5 6 1017.3 1013.0 0.0
 
Date/Time
EDT
Temp
°C
App
Temp
°C
Dew
Point
°C
Rel
Hum
%
Delta-T
°C
Wind Press
QNH
hPa
Press
MSL
hPa
Rain since
9am
mm
Dir  Spd
km/h
Gust
km/h
Spd
kts
Gust
kts
22/11:30pm 14.1 12.6 11.8 86 1.3 N 11 11 6 6 1017.6 1013.4 0.0
22/11:00pm 14.2 12.6 11.4 83 1.6 NNE 11 17 6 9 1017.6 1013.4 0.0
22/10:30pm 15.9 15.4 12.1 78 2.2 NE 6 11 3 6 1017.9 1013.6 0.0
22/10:00pm 16.2 14.7 12.0 76 2.4 NE 11 15 6 8 1017.6 1013.4 0.0
22/09:30pm 16.9 15.8 11.8 72 2.9 NE 9 13 5 7 1017.4 1013.2 0.0
22/09:00pm 17.8 15.9 11.8 68 3.4 NE 13 17 7 9 1017.1 1012.8 0.0
22/08:30pm 19.5 15.7 12.3 63 4.2 NE 24 30 13 16 1016.4 1012.2 0.0
22/08:00pm 21.2 16.2 12.3 57 5.2 ENE 30 37 16 20 1016.1 1011.8 0.0
22/07:30pm 23.0 17.9 12.0 50 6.5 ENE 30 35 16 19 1015.7 1011.4 0.0
22/07:00pm 24.7 20.1 12.3 46 7.4 ENE 28 37 15 20 1015.2 1010.9 0.0
22/06:30pm 25.8 20.2 11.6 41 8.4 ENE 32 39 17 21 1014.8 1010.5 0.0
22/06:00pm 28.0 23.2 10.2 33 10.4 E 26 39 14 21 1014.2 1009.9 0.0
22/05:30pm 30.3 26.8 5.6 21 13.6 SSW 13 20 7 11 1014.1 1009.8 0.0
22/05:00pm 30.1 27.5 6.1 22 13.3 E 9 15 5 8 1014.5 1010.1 0.0
22/04:30pm 30.3 27.7 6.2 22 13.4 SSE 9 15 5 8 1014.7 1010.4 0.0
22/04:00pm 30.1 26.9 6.7 23 13.1 SSE 13 20 7 11 1014.9 1010.6 0.0
22/03:30pm 29.3 27.5 7.8 26 12.2 ENE 7 17 4 9 1015.2 1010.9 0.0
22/03:00pm 29.0 27.4 8.7 28 11.6 SW 7 15 4 8 1015.5 1011.2 0.0
22/02:30pm 27.6 25.2 6.9 27 11.5 ENE 9 15 5 8 1016.0 1011.7 0.0
22/02:00pm 26.8 24.9 6.8 28 11.0 ENE 6 17 3 9 1016.2 1011.9 0.0
22/01:30pm 26.5 23.3 7.0 29 10.7 ESE 13 20 7 11 1016.5 1012.3 0.0
22/01:00pm 25.4 23.6 8.0 33 9.7 SE 7 13 4 7 1017.1 1012.8 0.0
22/12:30pm 24.5 22.2 8.9 37 8.8 ESE 11 19 6 10 1017.5 1013.3 0.0
22/12:00pm 22.9 21.0 7.4 37 8.4 SE 7 15 4 8 1017.6 1013.4 0.0
22/11:30am 21.8 19.9 9.0 44 7.1 E 9 19 5 10 1018.0 1013.7 0.0
22/11:00am 20.8 18.8 10.0 50 6.1 NE 11 22 6 12 1018.3 1014.0 0.0
22/10:30am 19.2 16.6 10.7 58 4.8 ENE 15 20 8 11 1018.4 1014.2 0.0
22/10:00am 18.0 15.0 10.6 62 4.2 NE 17 24 9 13 1018.6 1014.4 0.0
22/09:30am 16.8 13.8 10.6 67 3.5 NE 17 22 9 12 1018.8 1014.6 0.0
22/09:00am 15.2 12.1 10.2 72 2.7 NNE 17 26 9 14 1019.1 1014.8 0.0
22/08:30am 14.2 10.9 10.8 80 1.9 NE 19 24 10 13 1019.0 1014.7 0.0

Latest Capital City Observations: Canberra | Sydney | Melbourne | Brisbane | Adelaide | Perth | Hobart | Darwin

Other Formats:

Comma delimited format used in spreadsheet applications
http://www.bom.gov.au/fwo/IDN60903/IDN60903.94921.axf

JavaScript Object Notation format (JSON) in row-major order
http://www.bom.gov.au/fwo/IDN60903/IDN60903.94921.json